Roulette, Pennsylvania
Current Conditions -  °F | °C
As of 9:56 AM on Saturday 25 Oct 2014 (Local Time) from KELZ Reporting Station
Few Clouds Few Clouds  
Wind Chill: 52°   Ceiling: Unl
Heat Index: 52°   Visibility: 10mi
Dew Point: 41°   Wind: 10mph
Humidity: 66%   Direction: 240°WSW
Pressure: 29.85"   Gusts: NA
Location:  41.78°N, 78.15°W
Report Text: KELZ 251356Z AUTO 24009KT 10SM FEW033 11/05 A2985 RMK AO2 SLP115 T01110050
Loading
Personal Weather Stations






























Interactive Weather Map
Tropical Storm Tracking
New forecast layout! Learn more

10-Day Weather Forecast

Advertisements
Track Severe Weather on mobile